Time;durP1;ratioP1;P1;durP2;ratioP2;P2;SDS_P1;SDS_P2;PMS_P1;PMS_P2;Temp;Humidity;BMP_temperature;BMP_pressure;BME280_temperature;BME280_humidity;BME280_pressure;Samples;Min_cycle;Max_cycle;Signal;HPM_P1;HPM_P2
2022/01/04 00:01:47;;;;;;;5.50;3.50;;;;;;;7.38;100.00;95630.31;5071384;27;104978;-60
2022/01/04 00:04:14;;;;;;;4.30;3.33;;;;;;;7.34;100.00;95631.84;5074176;27;105320;-60
2022/01/04 00:06:42;;;;;;;5.03;3.80;;;;;;;7.39;100.00;95624.78;5071307;27;105214;-60
2022/01/04 00:09:10;;;;;;;4.10;3.63;;;;;;;7.43;100.00;95615.31;5072257;27;102738;-60
2022/01/04 00:13:20;;;;;;;4.77;3.50;;;;;;;7.47;100.00;95605.03;5071310;27;101889;-60
2022/01/04 00:14:46;;;;;;;4.57;3.03;;;;;;;7.48;100.00;95596.81;5072313;27;102622;-60
2022/01/04 00:17:13;;;;;;;6.13;3.60;;;;;;;7.41;100.00;95603.38;5070444;27;105118;-60
2022/01/04 00:19:40;;;;;;;4.30;3.80;;;;;;;7.40;100.00;95601.75;5071314;27;101920;-60
2022/01/04 00:22:08;;;;;;;4.73;3.47;;;;;;;7.45;100.00;95586.75;5070986;27;103915;-60
2022/01/04 00:24:35;;;;;;;5.00;3.70;;;;;;;7.40;100.00;95578.75;5070567;27;105343;-60
2022/01/04 00:27:02;;;;;;;3.90;3.30;;;;;;;7.45;100.00;95580.66;5074488;27;103247;-60
2022/01/04 00:29:30;;;;;;;3.97;3.27;;;;;;;7.44;100.00;95569.28;5070314;27;105584;-60
2022/01/04 00:31:58;;;;;;;7.70;4.70;;;;;;;7.46;100.00;95556.59;5070879;27;101957;-60
2022/01/04 00:34:26;;;;;;;4.83;3.83;;;;;;;7.50;100.00;95551.59;5070901;27;105496;-60
2022/01/04 00:36:53;;;;;;;5.30;3.57;;;;;;;7.55;100.00;95547.16;5069350;27;105410;-60
2022/01/04 00:39:20;;;;;;;5.80;4.00;;;;;;;7.38;100.00;95558.91;5070925;27;101847;-60
2022/01/04 00:42:04;;;;;;;5.20;3.40;;;;;;;7.40;100.00;95546.22;5070705;27;105642;-60
2022/01/04 00:44:31;;;;;;;6.47;3.93;;;;;;;7.35;100.00;95554.91;5070192;27;105331;-60
2022/01/04 00:47:00;;;;;;;3.70;3.30;;;;;;;7.42;100.00;95536.97;5070614;27;102052;-60
2022/01/04 00:49:25;;;;;;;3.83;3.03;;;;;;;7.35;100.00;95527.66;5073682;27;105102;-60
2022/01/04 00:51:55;;;;;;;8.57;5.33;;;;;;;7.33;100.00;95543.78;5077418;27;101822;-60
2022/01/04 00:54:23;;;;;;;4.83;3.90;;;;;;;7.38;100.00;95525.34;5054214;27;105555;-60
2022/01/04 00:56:50;;;;;;;4.80;3.40;;;;;;;7.39;100.00;95518.19;5071408;27;102659;-60
2022/01/04 00:59:46;;;;;;;4.57;3.57;;;;;;;7.32;100.00;95533.47;5070358;27;101989;-60
2022/01/04 01:02:15;;;;;;;3.70;3.07;;;;;;;7.36;100.00;95519.47;5070236;27;105087;-60
2022/01/04 01:04:42;;;;;;;3.43;2.73;;;;;;;7.39;100.00;95512.88;5069192;27;105514;-60
2022/01/04 01:07:09;;;;;;;4.63;3.67;;;;;;;7.36;100.00;95500.19;5070461;27;101924;-60
2022/01/04 01:09:47;;;;;;;4.73;3.70;;;;;;;7.39;100.00;95502.31;5070149;27;105613;-60
2022/01/04 01:12:35;;;;;;;3.60;3.30;;;;;;;7.40;100.00;95503.91;5072942;27;101731;-60
2022/01/04 01:15:03;;;;;;;3.63;3.00;;;;;;;7.36;100.00;95505.47;5070119;27;105079;-60
2022/01/04 01:18:08;;;;;;;4.57;3.47;;;;;;;7.41;100.00;95487.00;5082406;27;105224;-60
2022/01/04 01:20:36;;;;;;;4.33;3.57;;;;;;;7.41;100.00;95484.38;5051214;27;101883;-60
2022/01/04 01:23:04;;;;;;;4.43;3.13;;;;;;;7.41;100.00;95482.50;5070314;27;103687;-60
2022/01/04 01:25:31;;;;;;;6.80;3.37;;;;;;;7.37;100.00;95475.34;5069345;27;105867;-60
2022/01/04 01:28:00;;;;;;;3.90;3.27;;;;;;;7.43;100.00;95466.38;5070222;27;101904;-60
2022/01/04 01:30:28;;;;;;;4.37;3.07;;;;;;;7.44;100.00;95457.41;5069924;27;105256;-60
2022/01/04 01:32:55;;;;;;;2.87;2.57;;;;;;;7.44;100.00;95455.56;5072730;27;105240;-60
2022/01/04 01:35:24;;;;;;;4.10;2.80;;;;;;;7.49;100.00;95457.44;5069690;27;105412;-60
2022/01/04 01:37:52;;;;;;;3.47;2.77;;;;;;;7.46;100.00;95448.16;5069072;27;105277;-60
2022/01/04 01:40:52;;;;;;;3.80;2.63;;;;;;;7.47;100.00;95448.97;5069578;27;101716;-60
2022/01/04 01:43:22;;;;;;;3.53;2.83;;;;;;;7.33;100.00;95445.16;5071178;27;102905;-60
2022/01/04 01:45:49;;;;;;;3.97;3.20;;;;;;;7.30;100.00;95435.09;5069184;27;105935;-60
2022/01/04 01:48:17;;;;;;;4.23;3.43;;;;;;;7.34;100.00;95430.88;5069943;27;101959;-60
2022/01/04 01:50:46;;;;;;;3.83;3.43;;;;;;;7.30;100.00;95432.44;5071126;27;102973;-60
2022/01/04 01:53:14;;;;;;;4.10;3.20;;;;;;;7.27;100.00;95430.28;5068982;27;106275;-60
2022/01/04 01:55:41;;;;;;;4.77;3.53;;;;;;;7.22;100.00;95422.31;5072968;27;103761;-60
2022/01/04 01:58:20;;;;;;;4.03;3.27;;;;;;;7.26;100.00;95407.53;5069099;27;105825;-60
2022/01/04 02:00:48;;;;;;;5.40;3.63;;;;;;;7.30;100.00;95393.56;5069218;27;101898;-60
2022/01/04 02:03:16;;;;;;;5.20;3.70;;;;;;;7.21;100.00;95384.50;5069491;27;105615;-60
2022/01/04 02:05:42;;;;;;;4.00;3.17;;;;;;;7.15;100.00;95403.22;5068761;27;105403;-60
2022/01/04 02:08:18;;;;;;;5.07;3.40;;;;;;;7.10;100.00;95395.25;5069634;27;101905;-60
2022/01/04 02:14:07;;;;;;;4.17;3.00;;;;;;;7.13;100.00;95392.91;5068720;27;104636;-60
2022/01/04 02:16:34;;;;;;;5.20;3.07;;;;;;;7.16;100.00;95378.38;5069515;27;101917;-60
2022/01/04 02:19:08;;;;;;;4.30;3.13;;;;;;;7.21;100.00;95389.00;5071863;27;104983;-60
2022/01/04 02:21:37;;;;;;;4.70;3.10;;;;;;;7.22;100.00;95385.31;5069172;27;101900;-60
2022/01/04 02:24:05;;;;;;;5.70;3.00;;;;;;;7.20;100.00;95374.19;5069355;27;105835;-60
2022/01/04 02:26:33;;;;;;;4.67;3.10;;;;;;;7.23;100.00;95365.72;5070198;27;103215;-60
2022/01/04 02:29:01;;;;;;;5.87;3.20;;;;;;;7.23;100.00;95365.72;5069055;27;101925;-60
2022/01/04 02:31:28;;;;;;;4.90;3.13;;;;;;;7.18;100.00;95348.00;5069118;27;104888;-60
2022/01/04 02:33:56;;;;;;;3.10;2.80;;;;;;;7.22;100.00;95358.88;5069730;27;102759;-60
2022/01/04 02:36:23;;;;;;;6.03;3.00;;;;;;;7.21;100.00;95350.13;5070198;27;101836;-60
2022/01/04 02:39:12;;;;;;;4.27;3.00;;;;;;;7.24;100.00;95340.88;5070603;27;102886;-60
2022/01/04 02:41:47;;;;;;;4.33;3.03;;;;;;;7.27;100.00;95333.28;5071825;27;106725;-60
2022/01/04 02:44:14;;;;;;;4.23;3.10;;;;;;;7.32;100.00;95327.22;5068689;27;103892;-60
2022/01/04 02:46:41;;;;;;;2.60;2.40;;;;;;;7.39;100.00;95322.47;5068523;27;105714;-60
2022/01/04 02:49:23;;;;;;;3.37;2.90;;;;;;;7.41;100.00;95315.88;5068646;27;101992;-60
2022/01/04 02:51:51;;;;;;;3.47;2.50;;;;;;;7.49;100.00;95306.66;5070577;27;102901;-60
2022/01/04 02:54:19;;;;;;;3.97;2.40;;;;;;;7.49;100.00;95304.03;5073163;27;101940;-60
2022/01/04 02:56:46;;;;;;;3.50;2.40;;;;;;;7.50;100.00;95305.59;5072349;27;101899;-60
2022/01/04 02:59:21;;;;;;;5.40;2.30;;;;;;;7.50;100.00;95297.69;5072524;27;103352;-60
2022/01/04 03:01:48;;;;;;;3.10;1.93;;;;;;;7.53;100.00;95287.38;5071636;27;105764;-60
2022/01/04 03:04:15;;;;;;;2.27;1.97;;;;;;;7.54;100.00;95282.88;5075505;27;101998;-60
2022/01/04 03:06:42;;;;;;;3.00;2.50;;;;;;;7.54;100.00;95267.81;5071444;27;105648;-60
2022/01/04 03:09:13;;;;;;;2.43;2.20;;;;;;;7.52;100.00;95264.63;5072422;27;101914;-60
2022/01/04 03:12:12;;;;;;;2.87;2.50;;;;;;;7.49;100.00;95267.81;5072266;27;105395;-60
2022/01/04 03:14:39;;;;;;;2.53;2.30;;;;;;;7.47;100.00;95255.88;5071356;27;105479;-60
2022/01/04 03:17:06;;;;;;;3.03;2.37;;;;;;;7.48;100.00;95252.97;5072201;27;101870;-60
2022/01/04 03:19:33;;;;;;;4.03;2.37;;;;;;;7.42;100.00;95253.22;5071869;27;105171;-60
2022/01/04 03:22:00;;;;;;;3.73;3.03;;;;;;;7.30;100.00;95252.63;5071353;27;105468;-60
2022/01/04 03:24:27;;;;;;;3.57;3.27;;;;;;;7.27;100.00;95255.78;5075525;27;101913;-60
2022/01/04 03:26:55;;;;;;;3.50;3.20;;;;;;;7.23;100.00;95244.94;5072402;27;103107;-60
2022/01/04 03:29:25;;;;;;;5.17;3.20;;;;;;;7.12;100.00;95226.63;5072027;27;101865;-60
2022/01/04 03:31:54;;;;;;;3.47;3.00;;;;;;;7.11;100.00;95198.59;5071864;27;105084;-60
2022/01/04 03:34:21;;;;;;;3.27;2.90;;;;;;;7.08;100.00;95186.69;5070839;27;105358;-60
2022/01/04 03:36:48;;;;;;;4.17;3.77;;;;;;;7.01;100.00;95178.22;5071003;27;101874;-60
2022/01/04 03:39:22;;;;;;;4.87;4.00;;;;;;;7.04;100.00;95174.25;5071811;27;105676;-60
2022/01/04 03:41:51;;;;;;;3.90;3.50;;;;;;;7.03;100.00;95170.81;5071109;27;105377;-60
2022/01/04 03:44:20;;;;;;;4.07;3.37;;;;;;;7.03;100.00;95177.97;5069626;27;102095;-60
2022/01/04 03:46:50;;;;;;;4.80;3.77;;;;;;;6.96;100.00;95169.44;5074640;27;105992;-60
2022/01/04 03:49:28;;;;;;;4.00;3.50;;;;;;;6.90;100.00;95176.56;5071521;27;101858;-60
2022/01/04 03:51:55;;;;;;;4.70;3.80;;;;;;;6.84;100.00;95182.88;5073131;27;102925;-60
2022/01/04 03:54:22;;;;;;;3.83;3.43;;;;;;;6.69;100.00;95192.53;5070693;27;105803;-60
2022/01/04 03:56:50;;;;;;;4.03;3.17;;;;;;;6.71;100.00;95188.59;5071449;27;102057;-60
2022/01/04 04:00:01;;;;;;;4.90;3.60;;;;;;;6.80;100.00;95171.22;5070941;27;107297;-60
2022/01/04 04:02:29;;;;;;;4.93;3.90;;;;;;;6.79;100.00;95171.47;5050410;27;105756;-60
2022/01/04 04:04:57;;;;;;;5.47;4.07;;;;;;;6.85;100.00;95170.44;5061573;27;101967;-60
2022/01/04 04:07:41;;;;;;;5.13;3.80;;;;;;;6.90;100.00;95178.41;5071277;27;104920;-60
2022/01/04 04:10:08;;;;;;;3.80;3.40;;;;;;;6.93;100.00;95148.84;5073867;27;104314;-60
2022/01/04 04:12:36;;;;;;;5.83;4.13;;;;;;;6.96;100.00;95143.03;5071228;27;105231;-60
2022/01/04 04:15:05;;;;;;;4.03;3.63;;;;;;;6.97;100.00;95131.38;5070468;27;105388;-60
2022/01/04 04:17:36;;;;;;;4.10;3.27;;;;;;;6.97;100.00;95123.47;5070993;27;101966;-60
2022/01/04 04:20:05;;;;;;;4.63;3.87;;;;;;;6.91;100.00;95108.66;5070749;27;105295;-60
2022/01/04 04:22:33;;;;;;;3.50;3.20;;;;;;;6.79;100.00;95110.72;5050191;27;105073;-60
2022/01/04 04:25:00;;;;;;;3.97;3.27;;;;;;;6.69;100.00;95106.19;5060416;27;101863;-60
2022/01/04 04:27:57;;;;;;;3.30;3.00;;;;;;;6.68;100.00;95114.34;5071011;27;105640;-60
2022/01/04 04:30:24;;;;;;;3.40;3.10;;;;;;;6.72;100.00;95104.88;5069988;27;105332;-60
2022/01/04 04:32:53;;;;;;;4.40;3.33;;;;;;;6.76;100.00;95108.59;5074530;27;101884;-60
2022/01/04 04:35:20;;;;;;;4.00;3.30;;;;;;;6.70;100.00;95112.28;5070044;27;105406;-60
2022/01/04 04:37:47;;;;;;;3.90;3.07;;;;;;;6.71;100.00;95113.84;5070790;27;101954;-60
2022/01/04 04:40:15;;;;;;;4.03;2.80;;;;;;;6.82;100.00;95118.91;5070493;27;104869;-60
2022/01/04 04:42:42;;;;;;;4.97;2.83;;;;;;;6.83;100.00;95128.41;5070322;27;105369;-60
2022/01/04 04:45:10;;;;;;;3.70;2.80;;;;;;;6.93;100.00;95127.69;5079128;27;101837;-60
2022/01/04 04:47:41;;;;;;;3.00;2.70;;;;;;;7.03;100.00;95114.53;5067541;27;105634;-60
2022/01/04 04:50:10;;;;;;;4.97;3.03;;;;;;;6.98;100.00;95122.44;5057480;27;105310;-60
2022/01/04 04:52:37;;;;;;;4.33;3.10;;;;;;;6.93;100.00;95111.84;5067501;27;101926;-60
2022/01/04 04:55:05;;;;;;;5.63;3.20;;;;;;;6.97;100.00;95097.03;5060169;27;104106;-60
2022/01/04 04:57:33;;;;;;;3.53;2.97;;;;;;;6.95;100.00;95088.59;5070586;27;101899;-60
2022/01/04 05:00:00;;;;;;;4.33;3.43;;;;;;;7.00;100.00;95078.03;5070655;27;105206;-60
2022/01/04 05:02:27;;;;;;;4.13;3.37;;;;;;;6.96;100.00;95092.81;5069699;27;103879;-60
2022/01/04 05:04:54;;;;;;;5.07;3.63;;;;;;;6.77;100.00;95097.75;5070191;27;101827;-60
2022/01/04 05:07:30;;;;;;;3.97;3.00;;;;;;;6.82;100.00;95086.44;5070363;27;104868;-60
2022/01/04 05:09:57;;;;;;;5.63;4.47;;;;;;;6.82;100.00;95067.94;5069845;27;105355;-60
2022/01/04 05:13:03;;;;;;;5.77;4.77;;;;;;;6.92;100.00;95065.34;5070175;27;101910;-60
2022/01/04 05:15:30;;;;;;;6.57;4.80;;;;;;;6.62;100.00;95052.81;5069391;27;105638;-60
2022/01/04 05:18:03;;;;;;;6.27;4.70;;;;;;;6.70;100.00;95038.31;5072863;27;103926;-60
2022/01/04 05:20:30;;;;;;;5.63;3.97;;;;;;;6.72;100.00;95025.63;5069925;27;105058;-60
2022/01/04 05:22:58;;;;;;;4.50;3.43;;;;;;;6.77;100.00;95015.09;5069664;27;105410;-60
2022/01/04 05:25:25;;;;;;;4.10;3.00;;;;;;;6.75;100.00;95017.16;5071355;27;101866;-60
2022/01/04 05:27:53;;;;;;;3.30;2.97;;;;;;;6.77;100.00;95015.09;5071683;27;102583;-60
2022/01/04 05:30:20;;;;;;;3.20;2.90;;;;;;;6.78;100.00;95000.81;5067340;27;105793;-60
2022/01/04 05:32:47;;;;;;;3.97;2.90;;;;;;;6.75;100.00;94998.69;5071602;27;101996;-60
2022/01/04 05:35:14;;;;;;;2.50;2.30;;;;;;;6.83;100.00;95000.84;5069520;27;105055;-60
2022/01/04 05:37:41;;;;;;;2.97;2.70;;;;;;;6.78;100.00;94998.19;5072053;27;105151;-60
2022/01/04 05:40:11;;;;;;;3.60;3.00;;;;;;;6.83;100.00;94988.41;5069729;27;103709;-60
2022/01/04 05:42:39;;;;;;;3.30;2.87;;;;;;;6.71;100.00;94982.56;5069173;27;105719;-60
2022/01/04 05:45:07;;;;;;;3.17;2.80;;;;;;;6.66;100.00;94990.47;5069473;27;102094;-60
2022/01/04 05:47:59;;;;;;;4.60;3.27;;;;;;;6.59;100.00;94984.66;5069874;27;105415;-60
2022/01/04 05:50:26;;;;;;;3.70;3.00;;;;;;;6.55;100.00;94980.94;5068967;27;105090;-60
2022/01/04 05:52:53;;;;;;;4.20;3.03;;;;;;;6.65;100.00;94988.88;5069983;27;102047;-60
2022/01/04 05:55:23;;;;;;;4.63;3.30;;;;;;;6.66;100.00;94979.91;5069729;27;105260;-60
2022/01/04 05:57:55;;;;;;;3.30;2.97;;;;;;;6.68;100.00;94983.09;5070450;27;104409;-60
2022/01/04 06:00:22;;;;;;;4.20;3.03;;;;;;;6.53;100.00;94987.50;5074393;27;101983;-60
2022/01/04 06:02:49;;;;;;;3.50;3.20;;;;;;;6.65;100.00;94972.25;5068645;27;105205;-60
2022/01/04 06:05:16;;;;;;;4.37;3.30;;;;;;;6.75;100.00;94965.16;5069369;27;102009;-60
2022/01/04 06:07:44;;;;;;;4.77;3.20;;;;;;;6.75;100.00;94961.69;5069788;27;104892;-60
2022/01/04 06:10:12;;;;;;;4.67;3.13;;;;;;;6.68;100.00;94979.66;5069980;27;103321;-60
2022/01/04 06:15:40;;;;;;;2.47;2.20;;;;;;;6.62;100.00;94963.00;4990545;28;105759;-60
2022/01/04 06:18:09;;;;;;;4.83;2.73;;;;;;;6.73;100.00;94969.09;4986932;28;105992;-60
2022/01/04 06:20:37;;;;;;;3.50;2.87;;;;;;;6.69;100.00;94957.47;5006494;27;101951;-60
2022/01/04 06:23:04;;;;;;;3.00;2.70;;;;;;;6.83;100.00;94961.19;5072475;27;105236;-60
2022/01/04 06:25:31;;;;;;;7.20;3.40;;;;;;;6.84;100.00;94953.03;5070586;27;101706;-60
2022/01/04 06:28:00;;;;;;;4.27;2.90;;;;;;;6.86;100.00;94942.16;5071000;27;105165;-60
2022/01/04 06:30:27;;;;;;;3.60;3.30;;;;;;;6.88;100.00;94934.78;5072116;27;105888;-60
2022/01/04 06:32:56;;;;;;;3.57;2.93;;;;;;;6.93;100.00;94940.88;5072780;27;101994;-60
2022/01/04 06:35:25;;;;;;;5.43;3.40;;;;;;;6.92;100.00;94946.44;5056495;27;105494;-60
2022/01/04 06:37:53;;;;;;;6.07;3.97;;;;;;;6.89;100.00;94946.94;5071968;27;104044;-60
2022/01/04 06:40:22;;;;;;;3.60;2.90;;;;;;;6.95;100.00;94936.13;5072324;27;102426;-60
2022/01/04 06:42:50;;;;;;;3.83;3.00;;;;;;;6.99;100.00;94944.31;5072663;27;105453;-60
2022/01/04 06:45:18;;;;;;;4.23;2.70;;;;;;;7.03;100.00;94940.09;5075303;27;106706;-60
2022/01/04 06:47:45;;;;;;;3.77;2.60;;;;;;;7.01;100.00;94950.13;5072797;27;104456;-61
2022/01/04 06:50:14;;;;;;;2.17;1.90;;;;;;;7.01;100.00;94945.66;5071619;27;106073;-60
2022/01/04 06:52:41;;;;;;;3.13;2.23;;;;;;;7.05;100.00;94948.56;5072752;27;101980;-60
2022/01/04 06:55:09;;;;;;;2.50;2.03;;;;;;;7.05;100.00;94946.72;5073661;27;105166;-60
2022/01/04 06:57:39;;;;;;;2.67;2.30;;;;;;;7.07;100.00;94938.50;5071867;27;105862;-60
2022/01/04 07:00:07;;;;;;;3.17;2.30;;;;;;;7.04;100.00;94944.31;5072399;27;101834;-60
2022/01/04 07:02:36;;;;;;;3.30;3.00;;;;;;;7.01;100.00;94944.84;5072585;27;105075;-60
2022/01/04 07:05:04;;;;;;;3.00;2.70;;;;;;;6.97;100.00;94955.16;5071609;27;105075;-60
2022/01/04 07:07:31;;;;;;;5.70;3.17;;;;;;;6.97;100.00;94960.44;5075877;27;101819;-60
2022/01/04 07:09:58;;;;;;;6.10;4.90;;;;;;;6.91;100.00;94960.69;5071653;27;105392;-60
2022/01/04 07:12:50;;;;;;;3.87;2.80;;;;;;;6.92;100.00;94952.50;5072401;27;101947;-60
2022/01/04 07:15:17;;;;;;;5.40;2.90;;;;;;;6.94;100.00;94939.03;5072104;27;104834;-60
2022/01/04 07:18:21;;;;;;;4.77;3.00;;;;;;;6.91;100.00;94935.06;5071542;27;105678;-60
2022/01/04 07:20:48;;;;;;;3.90;3.30;;;;;;;6.94;100.00;94947.75;5071997;27;102511;-60
2022/01/04 07:23:16;;;;;;;6.73;3.47;;;;;;;6.89;100.00;94950.41;5072040;27;105311;-60
2022/01/04 07:25:43;;;;;;;5.47;3.93;;;;;;;6.95;100.00;94957.28;5071460;27;105143;-60
2022/01/04 07:28:14;;;;;;;4.67;3.57;;;;;;;6.96;100.00;94973.91;5072067;27;102015;-60
2022/01/04 07:30:43;;;;;;;5.20;3.53;;;;;;;6.91;100.00;94977.34;5074936;27;105637;-60
2022/01/04 07:33:10;;;;;;;7.40;4.83;;;;;;;6.89;100.00;94976.00;5072012;27;101670;-60
2022/01/04 07:35:39;;;;;;;5.80;4.20;;;;;;;6.88;100.00;94987.63;5071848;27;104954;-60
2022/01/04 07:38:06;;;;;;;23.67;11.40;;;;;;;6.79;100.00;94994.47;5071140;27;105710;-60
2022/01/04 07:41:00;;;;;;;17.27;9.33;;;;;;;6.71;100.00;95002.91;5069786;27;101718;-60
2022/01/04 07:43:27;;;;;;;8.03;5.00;;;;;;;6.68;100.00;94987.56;5071427;27;106242;-60
2022/01/04 07:45:54;;;;;;;9.63;5.97;;;;;;;6.63;100.00;95006.03;5071138;27;105301;-60
2022/01/04 07:48:22;;;;;;;8.20;5.37;;;;;;;6.62;100.00;94988.63;5071076;27;101678;-60
2022/01/04 07:50:53;;;;;;;5.67;4.73;;;;;;;6.67;100.00;94975.44;5074385;27;105095;-60
2022/01/04 07:53:20;;;;;;;5.70;5.10;;;;;;;6.64;100.00;94991.78;5071799;27;101989;-60
2022/01/04 07:55:48;;;;;;;7.47;4.77;;;;;;;6.62;100.00;94978.84;5073056;27;102834;-60
2022/01/04 07:58:15;;;;;;;5.17;4.20;;;;;;;6.54;100.00;94978.56;5070877;27;105678;-59
2022/01/04 08:00:43;;;;;;;4.53;4.00;;;;;;;6.62;100.00;94970.13;5071389;27;101829;-59
2022/01/04 08:03:11;;;;;;;5.00;4.20;;;;;;;6.50;100.00;94988.06;5071583;27;104993;-60
2022/01/04 08:05:38;;;;;;;4.30;3.70;;;;;;;6.54;100.00;94981.22;5070869;27;104290;-60
2022/01/04 08:08:18;;;;;;;5.03;3.63;;;;;;;6.49;100.00;94968.00;5071299;27;101899;-60
2022/01/04 08:11:00;;;;;;;6.03;3.70;;;;;;;6.62;100.00;94962.22;5071346;27;105217;-59
2022/01/04 08:13:30;;;;;;;4.43;3.63;;;;;;;6.55;100.00;94974.88;5074086;27;103677;-60
2022/01/04 08:15:57;;;;;;;3.90;3.47;;;;;;;6.63;100.00;94951.38;5071366;27;106028;-60
2022/01/04 08:18:27;;;;;;;4.17;3.73;;;;;;;6.67;100.00;94944.53;5070482;27;105891;-58
2022/01/04 08:20:57;;;;;;;4.87;3.63;;;;;;;6.68;100.00;94932.09;5072675;27;101666;-58
2022/01/04 08:23:26;;;;;;;5.23;4.30;;;;;;;6.68;100.00;94919.72;5071095;27;105075;-58
2022/01/04 08:25:54;;;;;;;3.30;3.00;;;;;;;6.73;100.00;94905.72;5070530;27;105892;-58
2022/01/04 08:28:24;;;;;;;7.57;4.27;;;;;;;6.71;100.00;94884.06;5070951;27;102011;-58
2022/01/04 08:30:51;;;;;;;5.67;3.40;;;;;;;6.82;100.00;94875.09;5071154;27;105807;-58
2022/01/04 08:33:18;;;;;;;7.00;4.43;;;;;;;6.88;100.00;94858.19;5070411;27;105599;-58
2022/01/04 08:35:46;;;;;;;6.00;4.10;;;;;;;6.86;100.00;94852.34;5075913;27;101784;-58
2022/01/04 08:38:15;;;;;;;6.90;4.50;;;;;;;6.95;100.00;94871.91;5069808;27;105824;-58
2022/01/04 08:41:05;;;;;;;5.03;4.27;;;;;;;6.99;100.00;94891.47;5070878;27;102029;-58
2022/01/04 08:43:32;;;;;;;5.60;4.10;;;;;;;7.05;100.00;94864.78;5070976;27;104907;-58
2022/01/04 08:45:59;;;;;;;5.23;4.00;;;;;;;7.03;100.00;94864.25;5070073;27;105654;-58
2022/01/04 08:49:17;;;;;;;6.73;5.03;;;;;;;7.04;100.00;94846.53;5070556;27;101849;-58
2022/01/04 08:51:44;;;;;;;6.07;4.27;;;;;;;7.05;100.00;94829.63;5070626;27;105486;-58
2022/01/04 08:54:11;;;;;;;5.23;4.37;;;;;;;7.16;100.00;94845.22;5070016;27;105985;-58
2022/01/04 08:56:39;;;;;;;4.73;4.30;;;;;;;7.17;100.00;94816.91;5070399;27;102004;-58
2022/01/04 08:59:13;;;;;;;5.77;4.30;;;;;;;7.16;100.00;94816.16;5074299;27;102374;-59
2022/01/04 09:01:42;;;;;;;5.00;4.50;;;;;;;7.22;100.00;94801.06;5070465;27;101793;-58
2022/01/04 09:04:08;;;;;;;6.43;4.67;;;;;;;7.18;100.00;94792.88;5070443;27;104476;-55
2022/01/04 09:06:35;;;;;;;10.70;6.10;;;;;;;7.14;100.00;94809.53;5069862;27;105399;-55
2022/01/04 09:09:13;;;;;;;5.43;3.97;;;;;;;7.06;100.00;94799.50;5070352;27;102006;-56
2022/01/04 09:12:22;;;;;;;5.20;3.63;;;;;;;7.16;100.00;94791.56;5071819;27;102286;-56
2022/01/04 09:14:58;;;;;;;4.93;3.33;;;;;;;7.29;100.00;94777.75;5069539;27;104993;-58
2022/01/04 09:20:41;;;;;;;5.97;4.00;;;;;;;7.43;100.00;94787.53;5062963;27;105723;-57
2022/01/04 09:23:08;;;;;;;6.30;3.73;;;;;;;7.34;100.00;94791.78;5073013;27;105670;-58
2022/01/04 09:25:36;;;;;;;4.23;3.43;;;;;;;7.41;100.00;94780.94;5070148;27;105600;-57
2022/01/04 09:28:04;;;;;;;6.00;4.20;;;;;;;7.51;100.00;94765.00;5070985;27;103149;-57
2022/01/04 09:30:32;;;;;;;7.17;5.37;;;;;;;7.51;100.00;94772.94;5071320;27;101962;-56
2022/01/04 09:33:00;;;;;;;8.40;5.83;;;;;;;7.61;100.00;94770.25;5070083;27;105180;-57
2022/01/04 09:35:27;;;;;;;6.77;4.97;;;;;;;7.69;100.00;94753.84;5069235;27;105095;-56
2022/01/04 09:38:29;;;;;;;5.57;4.73;;;;;;;7.76;100.00;94749.84;5069311;27;101816;-56
2022/01/04 09:41:13;;;;;;;5.73;4.93;;;;;;;7.85;100.00;94742.91;5071546;27;102502;-56
2022/01/04 09:43:40;;;;;;;7.77;5.57;;;;;;;7.90;100.00;94727.00;5069329;27;105135;-57
2022/01/04 09:46:08;;;;;;;5.83;4.03;;;;;;;8.00;100.00;94729.59;5073469;27;101783;-56
2022/01/04 09:48:42;;;;;;;3.77;3.47;;;;;;;8.06;100.00;94720.53;5068964;27;105678;-57
2022/01/04 09:51:12;;;;;;;3.77;3.37;;;;;;;8.11;100.00;94717.06;5069828;27;102012;-56
2022/01/04 09:53:38;;;;;;;3.97;3.57;;;;;;;8.10;100.00;94720.78;5071206;27;103017;-57
2022/01/04 09:56:06;;;;;;;5.43;3.90;;;;;;;8.11;100.00;94725.81;5069090;27;103793;-56
2022/01/04 09:58:34;;;;;;;4.90;4.07;;;;;;;8.16;100.00;94714.38;5069726;27;101975;-56
2022/01/04 10:01:02;;;;;;;7.47;5.13;;;;;;;8.19;100.00;94697.97;5069466;27;105570;-55
2022/01/04 10:03:32;;;;;;;6.20;5.60;;;;;;;8.26;100.00;94693.16;5068279;27;104144;-56
2022/01/04 10:06:05;;;;;;;7.53;5.60;;;;;;;8.24;100.00;94684.72;5072741;27;101789;-55
2022/01/04 10:08:33;;;;;;;10.37;7.00;;;;;;;8.37;100.00;94684.88;5068876;27;105595;-57
2022/01/04 10:11:10;;;;;;;5.97;5.27;;;;;;;8.43;100.00;94672.34;5069416;27;101969;-57
2022/01/04 10:13:38;;;;;;;11.63;5.17;;;;;;;8.61;100.00;94667.16;5069490;27;104099;-56
2022/01/04 10:16:15;;;;;;;7.53;4.97;;;;;;;8.72;100.00;94671.28;5068284;27;104472;-57
2022/01/04 10:18:51;;;;;;;6.30;5.03;;;;;;;8.72;100.00;94665.22;5068847;27;102070;-57
2022/01/04 10:21:18;;;;;;;6.07;4.67;;;;;;;8.66;100.00;94677.72;5068999;27;105139;-56
2022/01/04 10:23:55;;;;;;;3.53;3.23;;;;;;;8.94;100.00;94636.38;5068637;27;105870;-56
2022/01/04 10:26:30;;;;;;;2.47;2.10;;;;;;;9.10;100.00;94630.59;5069503;27;101813;-56
2022/01/04 10:28:59;;;;;;;2.90;2.00;;;;;;;9.33;100.00;94631.66;5072077;27;105239;-56
2022/01/04 10:31:26;;;;;;;2.80;1.90;;;;;;;9.50;100.00;94622.13;5070811;27;101730;-56
2022/01/04 10:33:56;;;;;;;2.60;2.33;;;;;;;9.61;100.00;94620.13;5068845;27;105584;-56
2022/01/04 10:36:25;;;;;;;3.10;2.30;;;;;;;9.72;100.00;94616.25;5068266;27;105968;-54
2022/01/04 10:38:53;;;;;;;3.20;2.13;;;;;;;9.90;100.00;94608.28;5069105;27;102084;-56
2022/01/04 10:42:02;;;;;;;2.10;1.90;;;;;;;10.03;100.00;94590.84;5069002;27;105103;-57
2022/01/04 10:44:33;;;;;;;1.90;1.80;;;;;;;10.13;100.00;94593.34;5068324;27;105534;-57
2022/01/04 10:47:08;;;;;;;1.80;1.60;;;;;;;10.29;100.00;94594.66;5069353;27;101869;-57
2022/01/04 10:49:43;;;;;;;2.33;2.10;;;;;;;10.35;100.00;94583.66;5068373;27;105571;-56
2022/01/04 10:52:12;;;;;;;2.77;2.10;;;;;;;10.52;100.00;94602.50;5071899;27;105791;-56
2022/01/04 10:54:39;;;;;;;1.50;1.40;;;;;;;10.94;100.00;94582.81;5070062;27;102403;-54
2022/01/04 10:57:08;;;;;;;1.70;1.60;;;;;;;10.99;100.00;94585.38;5068452;27;105791;-56
2022/01/04 10:59:36;;;;;;;1.83;1.73;;;;;;;11.00;100.00;94584.31;5069054;27;101963;-52
2022/01/04 11:02:03;;;;;;;1.73;1.57;;;;;;;11.00;100.00;94584.31;5068616;27;105142;-58
2022/01/04 11:04:30;;;;;;;1.83;1.50;;;;;;;11.12;100.00;94573.97;5069274;27;102749;-58
2022/01/04 11:07:00;;;;;;;1.70;1.60;;;;;;;11.16;100.00;94569.63;5068950;27;101862;-58
2022/01/04 11:09:29;;;;;;;1.67;1.57;;;;;;;11.20;100.00;94557.31;5068391;27;105196;-58
2022/01/04 11:12:09;;;;;;;1.50;1.40;;;;;;;11.20;100.00;94554.66;5068304;27;105454;-58
2022/01/04 11:14:36;;;;;;;2.00;1.80;;;;;;;11.20;100.00;94554.66;5073084;27;102006;-58
2022/01/04 11:17:05;;;;;;;1.80;1.70;;;;;;;11.32;100.00;94561.03;5071766;27;105695;-58
2022/01/04 11:19:32;;;;;;;1.53;1.43;;;;;;;11.31;100.00;94556.81;5071573;27;101991;-58
2022/01/04 11:22:04;;;;;;;1.80;1.57;;;;;;;11.33;100.00;94540.53;5072062;27;103610;-58
2022/01/04 11:24:34;;;;;;;2.23;1.63;;;;;;;11.32;100.00;94539.75;5071559;27;105759;-58
2022/01/04 11:27:03;;;;;;;1.47;1.37;;;;;;;11.29;100.00;94544.88;5051742;27;101931;-58
2022/01/04 11:29:38;;;;;;;1.90;1.60;;;;;;;11.24;100.00;94545.00;5067855;27;104840;-58
2022/01/04 11:32:08;;;;;;;2.37;1.93;;;;;;;11.20;100.00;94538.69;5071329;27;105768;-58
2022/01/04 11:34:50;;;;;;;1.87;1.57;;;;;;;11.11;100.00;94527.97;5072861;27;101915;-58
2022/01/04 11:37:55;;;;;;;1.80;1.70;;;;;;;11.04;100.00;94540.09;5074293;27;105070;-58
2022/01/04 11:43:46;;;;;;;2.43;1.67;;;;;;;10.96;100.00;94514.97;5071409;27;104983;-58
2022/01/04 11:46:32;;;;;;;1.83;1.73;;;;;;;11.01;100.00;94514.09;5071220;27;105681;-57
2022/01/04 11:49:16;;;;;;;3.40;1.83;;;;;;;10.99;100.00;94513.59;5072827;27;101669;-58
2022/01/04 11:51:44;;;;;;;3.20;1.70;;;;;;;11.06;100.00;94506.78;5071421;27;105341;-58
2022/01/04 11:54:21;;;;;;;1.77;1.67;;;;;;;11.12;100.00;94496.84;5070861;27;105006;-58
2022/01/04 11:56:50;;;;;;;1.97;1.80;;;;;;;11.18;100.00;94495.63;5071800;27;101862;-58